Latest Weather Observations for Weipa

IDQ60801

Issued at 7:02 pm EST Sunday 24 May 2015 (issued every 30 minutes, with the page automatically refreshed every 10 minutes)

About weather observations | Map of weather stations | Latest weather observations for QLD | Other Formats
Station Details ID: 027045 Name: WEIPA AERO Lat: -12.68 Lon: 141.92 Height: 17.96 m
Data from the previous 72 hours. | See also: Recent months at Weipa
Date/Time
EST
Temp
°C
App
Temp
°C
Dew
Point
Rel
Hum
%
Delta-T
°C
Wind Press
QNH
hPa
Press
MSL
hPa
Rain
since 9 am
mm
Dir
 
Spd
km/h
Gust
km/h
Spd
kts
Gust
kts
24/07:00pm 26.5 26.9 19.0 63 4.8 ESE 15 22 8 12 1014.8 - 0.0
24/06:30pm 26.4 27.5 18.9 63 4.8 E 11 20 6 11 1014.4 - 0.0
24/06:00pm 27.2 27.4 18.6 59 5.5 ESE 15 22 8 12 1014.0 1013.8 0.0
24/05:30pm 27.9 27.1 18.5 56 6.0 ESE 20 26 11 14 1013.5 - 0.0
24/05:00pm 28.6 27.0 18.3 53 6.6 ESE 24 37 13 20 1013.2 - 0.0
24/04:30pm 28.9 27.6 18.2 52 6.8 ESE 22 30 12 16 1012.9 - 0.0
24/04:00pm 30.0 28.5 17.8 48 7.8 E 22 39 12 21 1012.8 - 0.0
24/03:30pm 30.0 27.3 17.5 47 7.9 ESE 28 41 15 22 1012.7 - 0.0
24/03:00pm 29.6 27.8 17.8 49 7.5 ESE 24 35 13 19 1012.6 1012.4 0.0
24/02:30pm 30.4 28.1 17.6 46 8.2 ESE 26 43 14 23 1012.6 - 0.0
24/02:00pm 30.7 28.4 17.6 45 8.3 ESE 26 39 14 21 1012.8 - 0.0
24/01:30pm 31.1 28.9 17.8 45 8.5 ESE 26 37 14 20 1013.1 - 0.0
24/01:00pm 30.5 28.3 17.9 47 8.1 ESE 26 39 14 21 1013.6 - 0.0
24/12:30pm 30.6 28.6 18.2 47 8.0 E 26 37 14 20 1014.0 - 0.0
24/12:00pm 29.8 28.1 18.1 49 7.5 ESE 24 33 13 18 1014.3 1014.1 0.0
24/11:30am 29.2 27.5 18.2 51 7.0 ESE 24 35 13 19 1014.6 - 0.0
24/11:00am 28.6 27.4 19.2 56 6.1 E 24 35 13 19 1015.0 - 0.0
24/10:30am 28.1 27.6 19.2 58 5.8 ESE 20 30 11 16 1015.3 - 0.0
24/10:00am 27.0 25.4 19.1 62 5.1 ESE 26 37 14 20 1015.5 - 0.0
24/09:30am 25.9 23.9 19.2 66 4.3 ESE 28 37 15 20 1015.6 - 0.0
24/09:00am 25.3 23.7 19.1 68 4.0 ESE 26 37 14 20 1015.6 1015.4 0.0
24/08:30am 24.6 24.2 19.3 72 3.4 ESE 20 30 11 16 1015.3 - 0.0
24/08:00am 23.3 24.4 19.6 80 2.4 SE 13 20 7 11 1015.2 - 0.0
24/07:30am 21.7 24.1 19.7 88 1.3 SSE 6 11 3 6 1014.9 - 0.0
24/07:00am 21.0 23.3 19.5 91 1.0 SSE 6 7 3 4 1014.7 - 0.0
24/06:30am 20.9 23.2 19.5 92 0.9 SSE 6 9 3 5 1014.4 - 0.0
24/06:00am 20.9 23.3 19.6 92 0.8 SSE 6 9 3 5 1014.2 1014.0 0.0
24/05:30am 21.0 23.4 19.7 92 0.8 SE 6 11 3 6 1014.0 - 0.0
24/05:00am 20.9 23.3 19.7 93 0.8 SE 6 9 3 5 1013.9 - 0.0
24/04:30am 20.8 23.1 19.8 94 0.6 SE 7 9 4 5 1014.0 - 0.0
24/04:00am 20.9 23.4 19.8 93 0.7 SSE 6 7 3 4 1014.0 - 0.0
24/03:30am 20.8 23.6 19.7 93 0.7 S 4 6 2 3 1014.2 - 0.0
24/03:00am 21.2 23.7 19.8 92 0.9 SE 6 7 3 4 1014.1 1013.9 0.0
24/02:30am 21.4 23.9 19.9 91 1.0 SE 6 6 3 3 1014.2 - 0.0
24/02:00am 21.5 24.5 20.0 91 1.0 SE 4 6 2 3 1014.4 - 0.0
24/01:30am 21.8 24.4 20.0 89 1.2 SE 6 7 3 4 1014.5 - 0.0
24/01:00am 22.2 24.7 19.9 87 1.5 ESE 6 7 3 4 1014.5 - 0.0
24/12:30am 22.4 24.9 19.8 85 1.7 SE 6 7 3 4 1014.5 - 0.0
24/12:00am 22.8 25.2 19.7 83 2.0 SE 6 7 3 4 1014.8 1014.6 0.0
 
Date/Time
EST
Temp
°C
App
Temp
°C
Dew
Point
Rel
Hum
%
Delta-T
°C
Wind Press
QNH
hPa
Press
MSL
hPa
Rain
since 9 am
mm
Dir
 
Spd
km/h
Gust
km/h
Spd
kts
Gust
kts
23/11:30pm 23.3 25.5 19.7 80 2.3 ESE 7 9 4 5 1014.9 - 0.0
23/11:00pm 23.7 25.5 19.6 78 2.6 E 9 13 5 7 1015.1 - 0.0
23/10:30pm 24.0 26.2 19.6 76 2.8 E 7 13 4 7 1015.3 - 0.0
23/10:00pm 24.4 26.6 19.6 74 3.1 E 7 11 4 6 1015.5 - 0.0
23/09:30pm 24.7 26.5 19.5 73 3.3 E 9 11 5 6 1015.4 - 0.0
23/09:00pm 25.3 27.0 19.3 69 3.9 E 9 11 5 6 1015.3 1015.1 0.0
23/08:30pm 25.8 27.4 19.2 67 4.2 E 9 13 5 7 1015.0 - 0.0
23/08:00pm 26.2 28.4 19.2 65 4.5 E 6 9 3 5 1014.6 - 0.0
23/07:30pm 26.7 28.7 19.2 63 4.8 E 7 9 4 5 1014.1 - 0.0
23/07:00pm 27.3 28.8 19.0 60 5.3 E 9 17 5 9 1013.9 - 0.0
23/06:30pm 27.9 28.9 18.7 57 5.9 E 11 15 6 8 1013.5 - 0.0
23/06:00pm 28.7 29.6 18.4 53 6.6 E 11 17 6 9 1013.2 1013.0 0.0
23/05:30pm 29.8 30.1 17.8 48 7.6 E 13 22 7 12 1012.9 - 0.0
23/05:00pm 30.5 29.5 17.6 46 8.2 E 19 26 10 14 1012.6 - 0.0
23/04:30pm 31.4 31.2 18.4 46 8.4 E 17 26 9 14 1012.4 - 0.0
23/04:00pm 31.5 31.3 18.6 46 8.4 E 17 28 9 15 1012.3 - 0.0
23/03:30pm 31.8 31.4 18.1 44 8.8 E 17 26 9 14 1012.2 - 0.0
23/03:00pm 32.3 32.5 18.6 44 8.9 E 15 24 8 13 1012.1 1011.9 0.0
23/02:30pm 32.3 32.5 18.6 44 8.9 E 15 26 8 14 1012.4 - 0.0
23/02:00pm 31.8 31.9 18.3 44 8.7 E 15 24 8 13 1012.6 - 0.0
23/01:30pm 31.7 31.5 18.6 45 8.5 E 17 22 9 12 1012.9 - 0.0
23/01:00pm 30.4 29.7 18.6 49 7.6 ESE 20 30 11 16 1013.4 - 0.0
23/12:30pm 30.7 38.3 30.6 99 0.1 ESE 15 24 8 13 1013.9 - 0.0
23/12:00pm 30.2 37.1 30.1 99 0.1 E 17 24 9 13 1014.3 1014.1 0.0
23/11:30am 29.5 35.3 29.5 100 0.0 E 20 28 11 15 1014.7 - 0.0
23/11:00am 29.5 35.2 29.3 99 0.1 E 20 30 11 16 1015.1 - 0.0
23/10:30am 28.6 33.4 28.2 98 0.3 E 20 32 11 17 1015.4 - 0.0
23/10:00am 27.5 31.3 27.3 99 0.1 ESE 22 32 12 17 1015.7 - 0.0
23/09:30am 26.7 30.5 26.4 98 0.2 ESE 19 28 10 15 1015.8 - 0.0
23/09:00am 25.5 29.3 25.3 99 0.1 ESE 15 20 8 11 1015.8 1015.6 0.0
23/08:30am 24.1 28.1 23.8 98 0.2 SE 9 13 5 7 1015.9 - 0.0
23/08:00am 22.9 26.7 22.7 99 0.1 ESE 7 9 4 5 1015.6 - 0.0
23/07:30am 21.7 25.1 21.6 99 0.1 ESE 6 6 3 3 1015.4 - 0.0
23/07:00am 20.9 24.2 20.8 99 0.1 SE 4 7 2 4 1015.1 - 0.0
23/06:30am 20.6 23.8 20.6 100 0.0 SSE 4 6 2 3 1014.9 - 0.0
23/06:00am 20.6 23.8 20.6 100 0.0 ESE 4 6 2 3 1014.6 1014.4 0.0
23/05:30am 20.8 23.8 20.8 100 0.0 ESE 6 6 3 3 1014.4 - 0.0
23/05:00am 20.6 24.2 20.6 100 0.0 SSE 2 4 1 2 1014.4 - 0.0
23/04:30am 20.5 23.7 20.5 100 0.0 S 4 4 2 2 1014.5 - 0.0
23/04:00am 20.7 24.4 20.7 100 0.0 SSE 2 2 1 1 1014.3 - 0.0
23/03:30am 20.9 25.1 20.9 100 0.0 CALM 0 2 0 1 1014.3 - 0.0
23/03:00am 20.9 25.1 20.9 100 0.0 CALM 0 0 0 0 1014.3 1014.1 0.0
23/02:30am 21.1 25.0 21.1 100 0.0 ENE 2 2 1 1 1014.5 - 0.0
23/02:00am 21.7 26.2 21.6 99 0.1 CALM 0 2 0 1 1015.0 - 0.0
23/01:30am 21.9 25.4 21.8 99 0.1 SW 6 7 3 4 1015.0 - 0.0
23/01:00am 22.2 27.0 22.2 100 0.0 CALM 0 2 0 1 1015.0 - 0.0
23/12:30am 23.0 27.5 23.0 100 0.0 ESE 4 6 2 3 1015.1 - 0.0
23/12:00am 23.9 28.2 23.7 99 0.1 E 7 11 4 6 1015.2 1015.0 0.0
 
Date/Time
EST
Temp
°C
App
Temp
°C
Dew
Point
Rel
Hum
%
Delta-T
°C
Wind Press
QNH
hPa
Press
MSL
hPa
Rain
since 9 am
mm
Dir
 
Spd
km/h
Gust
km/h
Spd
kts
Gust
kts
22/11:30pm 24.0 28.6 23.8 99 0.1 ESE 6 7 3 4 1015.4 - 0.0
22/11:00pm 24.2 29.0 24.1 99 0.1 SE 6 7 3 4 1015.4 - 0.0
22/10:30pm 24.4 29.3 24.4 100 0.0 ESE 6 9 3 5 1015.3 - 0.0
22/10:00pm 24.8 30.0 24.8 100 0.0 SE 6 7 3 4 1015.3 - 0.0
22/09:30pm 25.3 30.6 25.3 100 0.0 SSE 7 9 4 5 1015.3 - 0.0
22/09:00pm 25.7 31.5 25.7 100 0.0 SE 6 9 3 5 1015.2 1015.0 0.0
22/08:30pm 26.0 32.0 26.0 100 0.0 SE 6 9 3 5 1014.9 - 0.0
22/08:00pm 25.8 31.1 25.8 100 0.0 S 9 17 5 9 1014.5 - 0.0
22/07:30pm 26.6 33.0 26.6 100 0.0 SSE 6 11 3 6 1014.0 - 0.0
22/07:00pm 26.7 33.5 26.7 100 0.0 SSW 4 13 2 7 1013.6 - 0.0
22/06:30pm 26.8 33.3 26.8 100 0.0 WSW 6 13 3 7 1013.2 - 0.0
22/06:00pm 27.4 33.4 27.4 100 0.0 WSW 11 17 6 9 1012.8 1012.6 0.0
22/05:30pm 28.4 35.3 28.2 99 0.1 W 9 17 5 9 1012.6 - 0.0
22/05:00pm 29.4 36.8 29.4 100 0.0 WSW 11 19 6 10 1012.3 - 0.0
22/04:30pm 29.9 37.7 29.9 100 0.0 W 11 19 6 10 1012.1 - 0.0
22/04:00pm 32.5 42.1 32.4 99 0.1 SSE 13 19 7 10 1012.0 - 0.0
22/03:30pm 32.8 42.7 32.7 99 0.1 SE 13 20 7 11 1012.0 - 0.0
22/03:00pm 32.3 - 32.5 - - ESE 13 20 7 11 1012.1 1012.0 0.0
22/02:30pm 32.7 42.1 32.6 99 0.1 SE 15 24 8 13 1012.3 - 0.0
22/02:00pm 32.2 41.6 32.2 100 0.0 SE 13 20 7 11 1012.6 - 0.0
22/01:30pm 31.7 40.6 31.6 99 0.1 SSE 13 22 7 12 1013.0 - 0.0
22/01:00pm 31.5 39.9 31.5 100 0.0 SE 15 24 8 13 1013.5 - 0.0
22/12:30pm 31.4 40.2 31.1 98 0.2 SE 11 19 6 10 1013.9 - 0.0
22/12:00pm 30.5 38.4 30.4 99 0.1 SSE 13 20 7 11 1014.5 1014.3 0.0
22/11:30am 29.5 37.0 29.5 100 0.0 SSE 11 20 6 11 1015.1 - 0.0
22/11:00am 29.3 36.4 29.0 98 0.2 SE 11 20 6 11 1015.4 - 0.0
22/10:30am 28.2 34.3 28.1 99 0.1 SE 13 22 7 12 1015.9 - 0.0
22/10:00am 27.4 32.1 27.3 99 0.1 E 17 22 9 12 1016.1 - 0.0
22/09:30am 27.1 31.6 26.9 99 0.1 ESE 17 20 9 11 1016.2 - 0.0
22/09:00am 25.9 30.3 25.6 98 0.2 ESE 13 19 7 10 1016.4 1016.2 0.0
22/08:30am 24.6 28.5 24.2 98 0.3 ESE 11 15 6 8 1016.3 - 0.0
22/08:00am 23.3 27.4 22.9 98 0.3 ESE 6 9 3 5 1016.3 - 0.0
22/07:30am 21.9 25.7 21.7 99 0.1 SE 4 6 2 3 1016.1 - 0.0
22/07:00am 21.1 24.6 21.1 100 0.0 SE 4 6 2 3 1016.0 - 0.0
22/06:30am 20.9 24.3 20.9 100 0.0 ESE 4 6 2 3 1015.7 - 0.0
22/06:00am 21.1 24.2 21.1 100 0.0 ESE 6 6 3 3 1015.3 1015.1 0.0
22/05:30am 21.3 24.9 21.3 100 0.0 ESE 4 4 2 2 1015.1 - 0.0
22/05:00am 21.2 24.4 21.2 100 0.0 ESE 6 6 3 3 1014.8 - 0.0
22/04:30am 21.6 25.4 21.6 100 0.0 ESE 4 6 2 3 1014.6 - 0.0
22/04:00am 21.2 24.8 21.2 100 0.0 ESE 4 4 2 2 1014.8 - 0.0
22/03:30am 21.3 25.2 21.2 99 0.1 ESE 2 4 1 2 1014.8 - 0.0
22/03:00am 21.7 25.1 21.7 100 0.0 ESE 6 6 3 3 1014.9 1014.7 0.0
22/02:30am 21.8 26.0 21.8 100 0.0 ESE 2 4 1 2 1015.1 - 0.0
22/02:00am 22.0 26.0 22.0 100 0.0 SSE 4 6 2 3 1015.1 - 0.0
22/01:30am 22.5 27.1 22.5 100 0.0 ESE 2 4 1 2 1015.2 - 0.0
22/01:00am 22.9 28.1 22.9 100 0.0 CALM 0 2 0 1 1015.3 - 0.0
22/12:30am 23.4 28.5 23.4 100 0.0 NE 2 4 1 2 1015.5 - 0.0
22/12:00am 24.2 29.0 24.2 100 0.0 E 6 6 3 3 1015.7 1015.5 0.0
 
Date/Time
EST
Temp
°C
App
Temp
°C
Dew
Point
Rel
Hum
%
Delta-T
°C
Wind Press
QNH
hPa
Press
MSL
hPa
Rain
since 9 am
mm
Dir
 
Spd
km/h
Gust
km/h
Spd
kts
Gust
kts
21/11:30pm 24.4 30.1 24.4 100 0.0 ENE 2 4 1 2 1015.9 - 0.0
21/11:00pm 25.1 30.5 25.1 100 0.0 ESE 6 7 3 4 1016.0 - 0.0
21/10:30pm 25.6 31.1 25.6 100 0.0 SE 7 9 4 5 1015.9 - 0.0
21/10:00pm 25.8 31.4 25.8 100 0.0 SE 7 11 4 6 1015.8 - 0.0
21/09:30pm 26.2 31.7 26.2 100 0.0 SSE 9 13 5 7 1015.6 - 0.0
21/09:00pm 26.3 32.5 26.3 100 0.0 SE 6 9 3 5 1015.3 1015.1 0.0
21/08:30pm 26.4 32.6 26.4 100 0.0 S 6 9 3 5 1015.1 - 0.0
21/08:00pm 26.5 32.7 26.4 99 0.1 S 6 11 3 6 1014.6 - 0.0
21/07:30pm 26.6 33.0 26.6 100 0.0 SW 6 15 3 8 1014.1 - 0.0

Other Formats:

Comma delimited format used in spreadsheet applications
http://www.bom.gov.au/fwo/IDQ60801/IDQ60801.94170.axf

JavaScript Object Notation format (JSON) in row-major order
http://www.bom.gov.au/fwo/IDQ60801/IDQ60801.94170.json